Aérodrome :
LOGIN :

S'inscrire | Disclaimer

   EN    FR    IT 

 










Légende :    VFR   VFR Marginal   IFR   IFR Intensif   IFR Très Intensif
Visi : 
Plafond : 
>= 8 km
>= 3000ft
5 à 8 km
1000 à 3000 ft
1500m à 5 km
500 à 1000 ft
800 à 1500m
200 à 500 ft
< 800m
< 200 ft
Symboles :   Orages  Brouillard  Fortes neiges  Fortes précipitations  Vent > 20 kt
SIGMETs :   Divers  Orages  Givrage  Turbulence  Onde Orograph.  Cendres Volcan.






- Altitude de l'aérodrome : 443 ft
- Code IATA : SQQ


EYSA - Siauliai

DERNIER METAR :
  • 191820Z 20008KT 9000 -SHRA SCT008 BKN014CB OVC018 04/03 Q1008 R14L/29//95 R14R/29//95 GRN NOSIG

METARs EXPIRÉS :
  • 191750Z 21007KT 9999 -SHRA FEW008 SCT013CB OVC016 04/03 Q1008 R14L/29//95 R14R/29//95 GRN TEMPO BKN015 WHT
  • 191720Z 20008KT 9999 -SHRA SCT008 BKN015CB OVC018 04/03 Q1008 R14L/29//95 R14R/29//95 GRN TEMPO BKN015 WHT
  • 191650Z 20010KT 9000 -DZ BKN011 BKN013 OVC026 04/03 Q1007 R14L/29//95 R14R/29//95 GRN NOSIG
  • 191620Z 21009KT 9999 SCT012 OVC015 04/02 Q1007 R14L/29//95 R14R/29//95 GRN NOSIG
  • 191550Z 19011KT 9999 SCT015 BKN020 OVC054 04/03 Q1007 R14L/29//95 R14R/29//95 WHT TEMPO BKN013 GRN

TAF TAF EYSA
Valide du 19 à 18h jusqu'au 20 à 03h UTC


191708Z 1918/2003 20010KT 9000 BKN010
TEMPO 1918/1921 5000 SHRA BKN005 BKN015CB
TEMPO 1921/2003 3000 DZ BR OVC002



MET'MAP, la Météo Aéronautique d'un coup d'oeil ! - Copyright ORBIFLY Décembre 2007 - Disclaimer

ORBIFLY MET'MAP TEAM :

Programmation & Développement : Alexandra Zaïnal
Sur une idée originale de : Baudouin d'Aumeries
Assistance à la programmation : Marc-Olivier Méhu
Soutien technique & logistique : Manuel Goepfert

Contact : metmap@orbifly.com




SOURCES & CREDITS :

   NOAA